createdAt,value
2022-12-12T00:00:26.648Z,98851.22
2022-12-12T00:02:58.275Z,98852.13
2022-12-12T00:05:28.498Z,98856.41
2022-12-12T00:07:58.880Z,98854.69
2022-12-12T00:10:28.566Z,98857.38
2022-12-12T00:12:58.157Z,98854.69
2022-12-12T00:15:29.061Z,98851.22
2022-12-12T00:17:58.814Z,98859.75
2022-12-12T00:20:28.470Z,98850.34
2022-12-12T00:22:58.058Z,98852.97
2022-12-12T00:25:27.658Z,98862.41
2022-12-12T00:27:57.251Z,98860.69
2022-12-12T00:30:26.957Z,98871.00
2022-12-12T00:32:56.510Z,98861.59
2022-12-12T00:35:26.423Z,98870.44
2022-12-12T00:37:56.025Z,98874.59
2022-12-12T00:40:25.686Z,98872.91
2022-12-12T00:42:55.301Z,98875.50
2022-12-12T00:45:24.586Z,98872.97
2022-12-12T00:47:54.501Z,98869.53
2022-12-12T00:50:24.045Z,98879.00
2022-12-12T00:52:53.747Z,98876.44
2022-12-12T00:55:23.406Z,98878.97
2022-12-12T00:57:53.299Z,98878.19
2022-12-12T01:00:24.006Z,98875.56
2022-12-12T01:02:53.886Z,98884.13
2022-12-12T01:05:24.331Z,98891.03
2022-12-12T01:07:55.150Z,98893.63
2022-12-12T01:10:25.113Z,98893.59
2022-12-12T01:12:54.830Z,98886.78
2022-12-12T01:15:24.390Z,98889.34
2022-12-12T01:17:55.025Z,98897.97
2022-12-12T01:20:29.070Z,98898.81
2022-12-12T01:22:59.260Z,98905.78
2022-12-12T01:25:28.732Z,98895.44
2022-12-12T01:27:58.223Z,98897.16
2022-12-12T01:30:31.026Z,98897.19
2022-12-12T01:33:00.685Z,98905.78
2022-12-12T01:35:31.966Z,98910.06
2022-12-12T01:38:01.999Z,98916.16
2022-12-12T01:40:32.970Z,98916.09
2022-12-12T01:43:02.529Z,98917.03
2022-12-12T01:46:13.683Z,98924.59
2022-12-12T01:49:02.129Z,98922.81
2022-12-12T01:51:32.623Z,98926.41
2022-12-12T01:54:17.243Z,98932.41
2022-12-12T01:56:52.347Z,98940.97
2022-12-12T01:59:24.057Z,98935.88
2022-12-12T02:01:55.320Z,98942.75
2022-12-12T02:04:27.137Z,98941.06
2022-12-12T02:06:57.889Z,98950.53
2022-12-12T02:09:31.035Z,98952.25
2022-12-12T02:12:00.795Z,98959.13
2022-12-12T02:14:53.403Z,98958.19
2022-12-12T02:17:52.699Z,98971.09
2022-12-12T02:20:37.069Z,98972.81
2022-12-12T02:23:32.511Z,98972.84
2022-12-12T02:26:09.416Z,98966.00
2022-12-12T02:29:06.716Z,98983.13
2022-12-12T02:31:42.364Z,98996.03
2022-12-12T02:34:27.846Z,98997.66
2022-12-12T02:37:00.928Z,98991.72
2022-12-12T02:40:20.921Z,99001.91
2022-12-12T02:43:13.833Z,99006.19
2022-12-12T02:45:47.127Z,99013.09
2022-12-12T02:48:30.737Z,99017.34
2022-12-12T02:51:04.372Z,99018.19
2022-12-12T02:53:34.765Z,99016.47
2022-12-12T02:56:07.648Z,99020.72
2022-12-12T02:58:40.466Z,99022.38
2022-12-12T03:01:40.937Z,99018.81
2022-12-12T03:04:54.500Z,99029.13
2022-12-12T03:07:49.277Z,99024.88
2022-12-12T03:10:28.085Z,99029.16
2022-12-12T03:13:19.767Z,99039.38
2022-12-12T03:16:15.949Z,99040.13
2022-12-12T03:18:57.436Z,99035.78
2022-12-12T03:22:25.710Z,99040.84
2022-12-12T03:25:05.550Z,99049.50
2022-12-12T03:27:55.902Z,99049.41
2022-12-12T03:30:25.905Z,99058.03
2022-12-12T03:33:08.585Z,99061.41
2022-12-12T03:35:40.174Z,99065.50
2022-12-12T03:38:15.723Z,99066.53
2022-12-12T03:40:50.532Z,99067.97
2022-12-12T03:43:33.632Z,99078.28
2022-12-12T03:46:23.704Z,99088.56
2022-12-12T03:49:03.051Z,99093.88
2022-12-12T03:51:37.965Z,99098.91
2022-12-12T03:54:54.994Z,99107.50
2022-12-12T03:57:34.377Z,99104.03
2022-12-12T04:00:08.940Z,99098.75
2022-12-12T04:03:03.336Z,99108.88
2022-12-12T04:06:26.728Z,99120.81
2022-12-12T04:09:23.299Z,99113.13
2022-12-12T04:12:18.065Z,99126.19
2022-12-12T04:15:06.046Z,99125.81
2022-12-12T04:17:58.662Z,99127.53
2022-12-12T04:20:55.359Z,99134.28
2022-12-12T04:23:35.911Z,99138.94
2022-12-12T04:26:29.721Z,99143.06
2022-12-12T04:29:31.451Z,99141.72
2022-12-12T04:32:15.513Z,99147.72
2022-12-12T04:35:03.461Z,99151.25
2022-12-12T04:37:40.596Z,99155.09
2022-12-12T04:40:14.570Z,99149.88
2022-12-12T04:42:55.108Z,99155.94
2022-12-12T04:45:30.522Z,99162.97
2022-12-12T04:48:02.728Z,99148.22
2022-12-12T04:50:34.676Z,99153.38
2022-12-12T04:53:18.411Z,99162.97
2022-12-12T04:55:58.148Z,99161.06
2022-12-12T04:58:29.111Z,99153.91
2022-12-12T05:01:08.864Z,99156.66
2022-12-12T05:03:44.941Z,99149.59
2022-12-12T05:06:18.103Z,99155.47
2022-12-12T05:08:55.004Z,99153.75
2022-12-12T05:11:24.897Z,99150.00
2022-12-12T05:13:54.714Z,99144.81
2022-12-12T05:16:44.872Z,99148.00
2022-12-12T05:19:15.146Z,99152.97
2022-12-12T05:21:44.872Z,99147.81
2022-12-12T05:24:14.481Z,99143.03
2022-12-12T05:26:44.380Z,99142.75
2022-12-12T05:29:14.882Z,99137.22
2022-12-12T05:31:44.693Z,99139.59
2022-12-12T05:34:14.016Z,99137.69
2022-12-12T05:36:44.369Z,99127.34
2022-12-12T05:39:13.932Z,99133.13
2022-12-12T05:41:43.916Z,99129.75
2022-12-12T05:44:13.283Z,99128.44
2022-12-12T05:46:42.971Z,99133.88
2022-12-12T05:49:12.615Z,99134.34
2022-12-12T05:51:44.323Z,99124.00
2022-12-12T05:54:15.329Z,99127.22
2022-12-12T05:56:45.307Z,99128.72
2022-12-12T05:59:16.223Z,99122.69
2022-12-12T06:01:46.466Z,99118.94
2022-12-12T06:04:17.087Z,99116.13
2022-12-12T06:06:48.315Z,99117.91
2022-12-12T06:09:17.967Z,99111.13
2022-12-12T06:11:47.650Z,99106.41
2022-12-12T06:14:17.858Z,99107.50
2022-12-12T06:16:47.505Z,99108.50
2022-12-12T06:19:17.306Z,99100.94
2022-12-12T06:21:47.873Z,99096.78
2022-12-12T06:24:18.340Z,99093.50
2022-12-12T06:26:52.428Z,99090.69
2022-12-12T06:29:22.585Z,99088.31
2022-12-12T06:31:52.323Z,99082.81
2022-12-12T06:34:21.977Z,99081.97
2022-12-12T06:36:51.774Z,99075.53
2022-12-12T06:39:21.518Z,99070.34
2022-12-12T06:41:51.174Z,99063.63
2022-12-12T06:44:20.802Z,99061.31
2022-12-12T06:46:50.450Z,99053.03
2022-12-12T06:49:20.509Z,99054.88
2022-12-12T06:51:50.341Z,99046.28
2022-12-12T06:54:20.894Z,99042.00
2022-12-12T06:56:50.764Z,99040.34
2022-12-12T06:59:20.927Z,99031.81
2022-12-12T07:01:50.855Z,99032.72
2022-12-12T07:04:21.757Z,99021.22
2022-12-12T07:06:51.802Z,99022.38
2022-12-12T07:09:22.151Z,99018.09
2022-12-12T07:11:51.886Z,99008.03
2022-12-12T07:14:24.557Z,99001.47
2022-12-12T07:16:54.248Z,99001.06
2022-12-12T07:19:24.448Z,98993.59
2022-12-12T07:21:54.210Z,98990.03
2022-12-12T07:24:23.813Z,98979.47
2022-12-12T07:26:53.933Z,98988.28
2022-12-12T07:29:23.715Z,98985.22
2022-12-12T07:31:53.060Z,98980.88
2022-12-12T07:34:24.730Z,98974.56
2022-12-12T07:37:00.791Z,98973.28
2022-12-12T07:42:35.754Z,98956.06
2022-12-12T07:45:05.824Z,98953.13
2022-12-12T07:47:36.253Z,98952.38
2022-12-12T07:50:07.812Z,98943.53
2022-12-12T07:52:38.545Z,98934.56
2022-12-12T07:55:08.834Z,98933.81
2022-12-12T07:57:39.305Z,98930.00
2022-12-12T08:00:11.923Z,98924.72
2022-12-12T08:02:42.684Z,98920.84
2022-12-12T08:05:12.948Z,98922.50
2022-12-12T08:07:43.764Z,98913.31
2022-12-12T08:10:13.449Z,98907.28
2022-12-12T08:12:43.020Z,98906.72
2022-12-12T08:15:18.564Z,98895.41
2022-12-12T08:17:49.047Z,98891.28
2022-12-12T08:20:18.926Z,98891.81
2022-12-12T08:22:48.558Z,98888.63
2022-12-12T08:25:18.966Z,98881.78
2022-12-12T08:27:48.640Z,98871.03
2022-12-12T08:30:18.048Z,98872.03
2022-12-12T08:32:47.950Z,98865.22
2022-12-12T08:35:17.857Z,98861.47
2022-12-12T08:37:47.611Z,98855.91
2022-12-12T08:40:17.595Z,98859.63
2022-12-12T08:42:47.697Z,98860.34
2022-12-12T08:45:18.151Z,98849.78
2022-12-12T08:47:48.043Z,98848.63
2022-12-12T08:50:18.628Z,98841.69
2022-12-12T08:52:48.316Z,98842.78
2022-12-12T08:55:19.092Z,98845.19
2022-12-12T08:57:49.241Z,98842.88
2022-12-12T09:00:19.509Z,98828.63
2022-12-12T09:02:49.356Z,98831.66
2022-12-12T09:05:19.145Z,98833.34
2022-12-12T09:07:49.124Z,98833.06
2022-12-12T09:10:19.592Z,98831.16
2022-12-12T09:12:49.747Z,98827.91
2022-12-12T09:15:20.026Z,98822.88
2022-12-12T09:17:49.863Z,98821.38
2022-12-12T09:20:19.942Z,98813.38
2022-12-12T09:22:49.830Z,98808.91
2022-12-12T09:25:20.357Z,98815.25
2022-12-12T09:27:50.941Z,98809.81
2022-12-12T09:30:20.789Z,98806.94
2022-12-12T09:32:51.133Z,98801.97
2022-12-12T09:35:20.943Z,98796.75
2022-12-12T09:37:50.853Z,98805.91
2022-12-12T09:40:27.199Z,98800.28
2022-12-12T09:42:57.664Z,98800.50
2022-12-12T09:45:28.770Z,98799.00
2022-12-12T09:48:04.324Z,98796.66
2022-12-12T09:50:37.093Z,98791.63
2022-12-12T09:53:15.399Z,98796.41
2022-12-12T09:56:23.342Z,98791.28
2022-12-12T09:58:57.268Z,98787.31
2022-12-12T10:01:47.439Z,98786.19
2022-12-12T10:04:41.881Z,98784.50
2022-12-12T10:07:16.171Z,98785.28
2022-12-12T10:09:53.824Z,98790.25
2022-12-12T10:12:24.689Z,98783.56
2022-12-12T10:15:03.347Z,98779.91
2022-12-12T10:17:37.720Z,98777.56
2022-12-12T10:20:30.468Z,98774.28
2022-12-12T10:23:06.748Z,98781.16
2022-12-12T10:25:53.846Z,98773.44
2022-12-12T10:28:26.790Z,98775.03
2022-12-12T10:31:15.123Z,98775.03
2022-12-12T10:33:44.908Z,98770.84
2022-12-12T10:36:24.574Z,98767.19
2022-12-12T10:38:54.396Z,98766.66
2022-12-12T10:41:41.936Z,98766.44
2022-12-12T10:44:47.001Z,98756.75
2022-12-12T10:47:17.676Z,98761.22
2022-12-12T10:49:47.122Z,98762.44
2022-12-12T10:52:23.805Z,98756.19
2022-12-12T10:54:59.569Z,98756.97
2022-12-12T10:57:35.795Z,98756.41
2022-12-12T11:00:20.075Z,98756.25
2022-12-12T11:02:50.559Z,98759.47
2022-12-12T11:05:36.908Z,98751.81
2022-12-12T11:08:31.562Z,98747.69
2022-12-12T11:11:06.898Z,98752.59
2022-12-12T11:13:48.820Z,98743.09
2022-12-12T11:16:30.178Z,98750.25
2022-12-12T11:19:09.234Z,98742.78
2022-12-12T11:21:40.583Z,98744.25
2022-12-12T11:24:16.180Z,98746.75
2022-12-12T11:27:07.852Z,98747.63
2022-12-12T11:29:51.826Z,98745.41
2022-12-12T11:32:27.507Z,98740.56
2022-12-12T11:35:22.932Z,98749.03
2022-12-12T11:38:18.871Z,98741.63
2022-12-12T11:41:10.979Z,98746.03
2022-12-12T11:43:51.179Z,98748.91
2022-12-12T11:46:26.083Z,98744.00
2022-12-12T11:48:55.755Z,98747.16
2022-12-12T11:51:39.617Z,98750.47
2022-12-12T11:54:14.797Z,98750.88
2022-12-12T11:56:52.335Z,98752.69
2022-12-12T11:59:46.367Z,98752.69
2022-12-12T12:02:51.789Z,98759.06
2022-12-12T12:05:33.317Z,98755.41
2022-12-12T12:08:32.974Z,98758.00
2022-12-12T12:11:03.028Z,98754.16
2022-12-12T12:13:53.069Z,98748.09
2022-12-12T12:16:50.371Z,98758.19
2022-12-12T12:19:49.038Z,98752.34
2022-12-12T12:22:27.475Z,98749.50
2022-12-12T12:25:09.359Z,98756.59
2022-12-12T12:28:05.273Z,98751.91
2022-12-12T12:31:10.560Z,98758.13
2022-12-12T12:33:55.933Z,98760.03
2022-12-12T12:36:41.642Z,98751.47
2022-12-12T12:39:30.067Z,98760.19
2022-12-12T12:42:11.222Z,98768.41
2022-12-12T12:44:56.999Z,98765.97
2022-12-12T12:47:29.896Z,98762.75
2022-12-12T12:50:30.344Z,98770.41
2022-12-12T12:53:18.567Z,98778.84
2022-12-12T12:55:52.557Z,98770.09
2022-12-12T12:58:32.770Z,98770.00
2022-12-12T13:01:08.299Z,98777.13
2022-12-12T13:03:49.699Z,98781.47
2022-12-12T13:06:45.960Z,98778.78
2022-12-12T13:09:37.342Z,98781.69
2022-12-12T13:12:45.225Z,98786.88
2022-12-12T13:15:42.466Z,98788.69
2022-12-12T13:18:18.055Z,98792.44
2022-12-12T13:21:22.141Z,98795.75
2022-12-12T13:24:19.222Z,98792.56
2022-12-12T13:27:24.078Z,98799.50
2022-12-12T13:30:08.356Z,98809.03
2022-12-12T13:32:55.216Z,98804.91
2022-12-12T13:35:35.219Z,98805.00
2022-12-12T13:38:06.355Z,98807.97
2022-12-12T13:40:44.822Z,98813.06
2022-12-12T13:43:47.945Z,98812.88
2022-12-12T13:46:21.765Z,98821.00
2022-12-12T13:49:15.595Z,98821.06
2022-12-12T13:51:46.901Z,98822.19
2022-12-12T13:54:16.813Z,98817.16
2022-12-12T13:57:08.250Z,98822.88
2022-12-12T13:59:57.840Z,98819.47
2022-12-12T14:02:34.304Z,98816.91
2022-12-12T14:05:11.919Z,98824.69
2022-12-12T14:07:53.688Z,98830.06
2022-12-12T14:10:41.135Z,98825.72
2022-12-12T14:13:29.398Z,98829.19
2022-12-12T14:16:16.923Z,98830.22
2022-12-12T14:18:52.811Z,98833.63
2022-12-12T14:21:37.256Z,98835.41
2022-12-12T14:24:32.542Z,98835.28
2022-12-12T14:27:07.138Z,98837.28
2022-12-12T14:29:45.021Z,98849.28
2022-12-12T14:32:17.507Z,98847.22
2022-12-12T14:35:11.469Z,98848.50
2022-12-12T14:37:53.236Z,98850.53
2022-12-12T14:40:40.964Z,98855.50
2022-12-12T14:43:23.669Z,98852.06
2022-12-12T14:45:53.461Z,98855.13
2022-12-12T14:48:34.379Z,98854.81
2022-12-12T14:51:30.170Z,98856.50
2022-12-12T14:54:01.846Z,98854.22
2022-12-12T14:56:52.581Z,98864.38
2022-12-12T14:59:25.067Z,98860.56
2022-12-12T15:01:58.487Z,98866.44
2022-12-12T15:04:30.149Z,98868.38
2022-12-12T15:07:01.337Z,98868.53
2022-12-12T15:09:39.913Z,98875.28
2022-12-12T15:12:12.784Z,98874.47
2022-12-12T15:15:02.771Z,98871.75
2022-12-12T15:17:38.189Z,98869.47
2022-12-12T15:20:16.821Z,98881.56
2022-12-12T15:23:03.674Z,98886.56
2022-12-12T15:25:56.907Z,98881.34
2022-12-12T15:28:27.888Z,98880.16
2022-12-12T15:30:58.264Z,98885.56
2022-12-12T15:33:30.031Z,98889.97
2022-12-12T15:36:08.409Z,98894.53
2022-12-12T15:38:39.289Z,98893.84
2022-12-12T15:41:13.773Z,98901.47
2022-12-12T15:43:45.908Z,98903.56
2022-12-12T15:46:18.564Z,98900.97
2022-12-12T15:48:51.131Z,98905.66
2022-12-12T15:51:25.334Z,98901.25
2022-12-12T15:53:57.991Z,98897.03
2022-12-12T15:56:32.253Z,98904.59
2022-12-12T15:59:11.099Z,98904.94
2022-12-12T16:01:41.557Z,98908.31
2022-12-12T16:04:11.550Z,98910.09
2022-12-12T16:06:47.704Z,98905.53
2022-12-12T16:09:26.597Z,98907.25
2022-12-12T16:11:58.449Z,98912.72
2022-12-12T16:14:42.073Z,98912.88
2022-12-12T16:17:26.620Z,98909.38
2022-12-12T16:20:01.764Z,98913.06
2022-12-12T16:22:43.940Z,98910.41
2022-12-12T16:25:28.058Z,98908.66
2022-12-12T16:28:07.252Z,98916.66
2022-12-12T16:30:39.430Z,98910.47
2022-12-12T16:33:24.285Z,98911.06
2022-12-12T16:35:54.869Z,98914.75
2022-12-12T16:38:25.555Z,98914.84
2022-12-12T16:40:57.117Z,98909.63
2022-12-12T16:43:30.570Z,98919.03
2022-12-12T16:46:02.041Z,98911.28
2022-12-12T16:48:43.275Z,98915.28
2022-12-12T16:51:20.210Z,98921.38
2022-12-12T16:53:50.638Z,98915.66
2022-12-12T16:56:22.872Z,98921.50
2022-12-12T16:58:54.790Z,98918.06
2022-12-12T17:01:28.057Z,98918.91
2022-12-12T17:03:59.207Z,98926.75
2022-12-12T17:06:30.040Z,98921.44
2022-12-12T17:09:00.215Z,98925.81
2022-12-12T17:11:30.077Z,98924.88
2022-12-12T17:14:00.115Z,98924.88
2022-12-12T17:16:29.784Z,98929.28
2022-12-12T17:18:59.779Z,98935.38
2022-12-12T17:21:29.371Z,98927.63
2022-12-12T17:23:59.131Z,98928.56
2022-12-12T17:26:29.064Z,98925.25
2022-12-12T17:28:58.736Z,98932.13
2022-12-12T17:31:28.354Z,98928.75
2022-12-12T17:33:58.239Z,98925.38
2022-12-12T17:36:27.880Z,98934.06
2022-12-12T17:38:59.031Z,98934.06
2022-12-12T17:41:29.315Z,98938.44
2022-12-12T17:44:01.212Z,98937.53
2022-12-12T17:46:31.693Z,98935.03
2022-12-12T17:49:03.395Z,98934.16
2022-12-12T17:51:34.071Z,98927.25
2022-12-12T17:54:04.762Z,98933.41
2022-12-12T17:56:35.407Z,98931.81
2022-12-12T17:59:08.378Z,98932.69
2022-12-12T18:01:39.494Z,98937.03
2022-12-12T18:04:10.179Z,98938.81
2022-12-12T18:06:40.872Z,98931.16
2022-12-12T18:09:10.669Z,98927.94
2022-12-12T18:11:43.295Z,98928.69
2022-12-12T18:14:20.247Z,98937.25
2022-12-12T18:16:52.576Z,98926.09
2022-12-12T18:19:26.986Z,98931.25
2022-12-12T18:22:01.201Z,98931.44
2022-12-12T18:24:33.696Z,98933.41
2022-12-12T18:27:04.995Z,98929.97
2022-12-12T18:29:34.751Z,98925.72
2022-12-12T18:32:06.105Z,98924.03
2022-12-12T18:34:35.934Z,98926.63
2022-12-12T18:37:05.308Z,98925.72
2022-12-12T18:39:35.157Z,98923.06
2022-12-12T18:42:04.671Z,98917.88
2022-12-12T18:44:34.645Z,98922.16
2022-12-12T18:47:04.308Z,98923.97
2022-12-12T18:49:33.617Z,98924.09
2022-12-12T18:52:05.833Z,98926.78
2022-12-12T18:54:35.518Z,98922.41
2022-12-12T18:57:04.974Z,98919.84
2022-12-12T18:59:35.000Z,98920.81
2022-12-12T19:02:04.882Z,98919.19
2022-12-12T19:04:34.947Z,98927.75
2022-12-12T19:07:04.569Z,98922.59
2022-12-12T19:09:34.210Z,98915.69
2022-12-12T19:12:04.088Z,98921.78
2022-12-12T19:14:59.856Z,98921.78
2022-12-12T19:17:26.419Z,98921.78
2022-12-12T19:19:56.444Z,98927.72
2022-12-12T19:25:18.599Z,98935.66
2022-12-12T19:27:48.799Z,98940.00
2022-12-12T19:30:18.899Z,98932.31
2022-12-12T19:32:50.270Z,98929.66
2022-12-12T19:35:20.006Z,98928.09
2022-12-12T19:37:49.709Z,98933.28
2022-12-12T19:40:20.033Z,98935.03
2022-12-12T19:42:49.904Z,98935.16
2022-12-12T19:45:19.643Z,98936.06
2022-12-12T19:47:48.946Z,98931.03
2022-12-12T19:50:18.835Z,98942.28
2022-12-12T19:52:48.369Z,98932.81
2022-12-12T19:55:18.016Z,98942.38
2022-12-12T19:57:47.670Z,98951.06
2022-12-12T20:00:20.872Z,98946.75
2022-12-12T20:02:50.802Z,98945.03
2022-12-12T20:05:20.731Z,98950.25
2022-12-12T20:07:50.624Z,98956.38
2022-12-12T20:10:20.211Z,98952.09
2022-12-12T20:12:58.267Z,98948.69
2022-12-12T20:15:28.651Z,98948.75
2022-12-12T20:18:01.268Z,98953.06
2022-12-12T20:20:31.100Z,98954.84
2022-12-12T20:23:00.879Z,98962.59
2022-12-12T20:25:30.716Z,98967.00
2022-12-12T20:28:00.606Z,98963.56
2022-12-12T20:30:30.305Z,98958.47
2022-12-12T20:32:59.969Z,98954.25
2022-12-12T20:35:30.450Z,98956.81
2022-12-12T20:38:00.207Z,98963.75
2022-12-12T20:40:30.318Z,98956.84
2022-12-12T20:43:03.417Z,98956.94
2022-12-12T20:45:36.793Z,98964.78
2022-12-12T20:48:07.840Z,98960.41
2022-12-12T20:50:37.721Z,98961.28
2022-12-12T20:53:07.400Z,98964.75
2022-12-12T20:55:38.368Z,98973.34
2022-12-12T20:58:08.098Z,98964.78
2022-12-12T21:00:40.188Z,98971.78
2022-12-12T21:03:09.881Z,98970.19
2022-12-12T21:05:39.902Z,98971.94
2022-12-12T21:08:09.616Z,98975.28
2022-12-12T21:10:39.018Z,98979.63
2022-12-12T21:13:08.805Z,98975.28
2022-12-12T21:15:38.880Z,98980.38
2022-12-12T21:18:08.881Z,98976.94
2022-12-12T21:20:38.555Z,98982.94
2022-12-12T21:23:08.209Z,98971.78
2022-12-12T21:25:38.346Z,98971.81
2022-12-12T21:28:08.576Z,98976.16
2022-12-12T21:30:38.365Z,98979.56
2022-12-12T21:33:07.998Z,98985.59
2022-12-12T21:35:38.711Z,98972.66
2022-12-12T21:38:08.605Z,98976.06
2022-12-12T21:40:38.637Z,98976.03
2022-12-12T21:43:08.262Z,98975.16
2022-12-12T21:45:41.308Z,98977.63
2022-12-12T21:48:10.979Z,98983.75
2022-12-12T21:50:40.372Z,98984.63
2022-12-12T21:53:28.533Z,98984.59
2022-12-12T21:56:03.906Z,98986.34
2022-12-12T21:58:34.835Z,98982.13
2022-12-12T22:01:08.989Z,98984.59
2022-12-12T22:03:39.471Z,98972.66
2022-12-12T22:06:14.796Z,98983.81
2022-12-12T22:08:45.322Z,98979.53
2022-12-12T22:11:40.485Z,98985.53
2022-12-12T22:14:08.059Z,98984.66
2022-12-12T22:16:39.070Z,98979.56
2022-12-12T22:19:12.878Z,98978.75
2022-12-12T22:21:42.499Z,98992.53
2022-12-12T22:24:13.153Z,98989.09
2022-12-12T22:26:47.178Z,98976.97
2022-12-12T22:29:19.966Z,98989.03
2022-12-12T22:31:53.365Z,98977.97
2022-12-12T22:34:25.184Z,98976.19
2022-12-12T22:36:55.396Z,98981.41
2022-12-12T22:39:29.808Z,98982.22
2022-12-12T22:41:59.476Z,98979.66
2022-12-12T22:44:28.955Z,98987.47
2022-12-12T22:46:58.636Z,98977.13
2022-12-12T22:49:28.823Z,98978.88
2022-12-12T22:51:59.600Z,98982.31
2022-12-12T22:54:29.377Z,98980.63
2022-12-12T22:56:59.358Z,98979.00
2022-12-12T22:59:29.186Z,98986.72
2022-12-12T23:01:59.137Z,98988.47
2022-12-12T23:04:28.747Z,98981.63
2022-12-12T23:06:58.907Z,98982.47
2022-12-12T23:09:28.542Z,98983.38
2022-12-12T23:11:58.044Z,98980.75
2022-12-12T23:14:28.540Z,98991.09
2022-12-12T23:16:58.342Z,98978.25
2022-12-12T23:19:29.806Z,98992.00
2022-12-12T23:21:59.700Z,98987.72
2022-12-12T23:24:29.138Z,98985.94
2022-12-12T23:26:58.736Z,98988.59
2022-12-12T23:29:28.772Z,98986.00
2022-12-12T23:31:59.714Z,98975.69
2022-12-12T23:34:29.499Z,98973.03
2022-12-12T23:36:59.738Z,98980.81
2022-12-12T23:39:30.014Z,98980.81
2022-12-12T23:41:59.902Z,98982.59
2022-12-12T23:44:30.234Z,98992.09
2022-12-12T23:46:59.595Z,98989.56
2022-12-12T23:49:29.250Z,98984.41
2022-12-12T23:52:00.670Z,98986.91
2022-12-12T23:54:33.208Z,98984.34
2022-12-12T23:57:04.058Z,98981.78
2022-12-12T23:59:33.732Z,98987.81
